Naval Anacostia Annex, DC

4:51 AM EDT on June 03, 2015 (GMT -0400)
Davison Army Air Field | | Change Station
CLOSE
Current Station
Airport
Location: Fort Belvoir,
Elevation: 69 ft
Nearby Weather Stations

Elev 69 ft 38.72 °N, 77.18 °W | Updated 3 minutes ago

Overcast
Overcast
57 °F
Feels Like 57 °F
N
4
Wind Variable Wind from Variable

Today
High -- | Low -- °F
--% Chance of Precip.
Yesterday
High -- | Low -- °F
Precip. -- in
5:44 AM 8:28 PM
Waxing Gibbous, 99% visible
Pressure 30.12 in
Visibility 10.0 miles
Clouds Few 1200 ft
Mostly Cloudy 2000 ft
Mostly Cloudy 2700 ft
Dew Point 55 °F
Humidity 94%
Rainfall 0.04 in
Snow Depth Not available.
UV 0 out of 12
Pollen .60 out of 12
Air Quality Not available.
Flu Activity Sporadic
SPECI KDAA 030848Z AUTO VRB03KT 10SM FEW012 BKN020 BKN027 14/13 A3012 RMK AO2 DZB05E18

More Conditions Fewer Conditions

Pressure 30.12 in
Visibility 10.0 miles
Clouds Few 1200 ft
Mostly Cloudy 2000 ft
Mostly Cloudy 2700 ft
Dew Point 55 °F
Humidity 94%
Rainfall 0.04 in
Snow Depth Not available.
UV 0 out of 12
Pollen .60 out of 12
Air Quality Not available.
Flu Activity Sporadic
SPECI KDAA 030848Z AUTO VRB03KT 10SM FEW012 BKN020 BKN027 14/13 A3012 RMK AO2 DZB05E18

More Conditions Fewer Conditions

10-Day Weather Forecast

×

Almanac

Astronomy

Jun. 03, 2015 Rise Set
Actual Time
Civil Twilight
Nautical Twilight
Astronomical Twilight
Moon
Length of Visible Light
Length of Day
Tomorrow will be .
, % of the Moon is Illuminated

Today's Extremes

State Highs State Lows

Community

WunderPhotos

Upload Photos

1,826,194 photos uploaded!

WunderBlogs® & News

Nearby

Air Quality

  Air Quality AQ Index Pollutant
Not available.

Snow Depth

Station Depth Elevation

Earthquake Activity

City Distance Mag. Time & Date
Minimum magnitude displayed is 2.5.

Coastal Water Temperatures

Place Temperature

Stations

Nearby Weather Stations

Station Location Temp. Windchill Dew Point Humidity Wind Precip. Elev Updated Type